Time;durP1;ratioP1;P1;durP2;ratioP2;P2;SDS_P1;SDS_P2;PMS_P1;PMS_P2;Temp;Humidity;BMP_temperature;BMP_pressure;BME280_temperature;BME280_humidity;BME280_pressure;Samples;Min_cycle;Max_cycle;Signal;HPM_P1;HPM_P2
2022/12/12 00:01:25;;;;;;;1.73;1.63;;;;;;;7.17;nan;-24017.19;5033154;28;20172;-87
2022/12/12 00:03:51;;;;;;;1.90;1.67;;;;;;;7.09;nan;-24015.06;5031473;28;20571;-86
2022/12/12 00:06:17;;;;;;;2.40;1.60;;;;;;;7.01;nan;-24012.81;5031455;28;20190;-85
2022/12/12 00:09:04;;;;;;;2.40;1.53;;;;;;;7.06;nan;-24014.09;5032015;28;20241;-86
2022/12/12 00:11:30;;;;;;;1.40;1.30;;;;;;;6.90;nan;-24009.53;5031194;28;20183;-86
2022/12/12 00:13:56;;;;;;;1.67;1.57;;;;;;;6.92;nan;-24010.25;5031628;28;20171;-84
2022/12/12 00:16:23;;;;;;;2.07;1.87;;;;;;;6.90;nan;-24009.69;5031517;28;20237;-86
2022/12/12 00:18:49;;;;;;;3.20;1.40;;;;;;;6.97;nan;-24011.66;5031303;28;20183;-86
2022/12/12 00:21:17;;;;;;;1.50;1.40;;;;;;;6.37;nan;-23994.66;5031314;28;20604;-85
2022/12/12 00:23:43;;;;;;;1.57;1.47;;;;;;;6.51;nan;-23998.75;5031506;28;20198;-86
2022/12/12 00:26:24;;;;;;;1.50;1.40;;;;;;;6.92;nan;-24010.25;5031454;28;20183;-85
2022/12/12 00:28:49;;;;;;;1.93;1.80;;;;;;;6.85;nan;-24008.25;5032849;28;20206;-85
2022/12/12 00:31:16;;;;;;;1.43;1.33;;;;;;;7.04;nan;-24013.66;5031508;28;20551;-86
2022/12/12 00:33:43;;;;;;;1.67;1.57;;;;;;;7.18;nan;-24017.47;5031365;28;20183;-87
2022/12/12 00:36:09;;;;;;;1.93;1.70;;;;;;;7.05;nan;-24013.94;5031785;28;20568;-83
2022/12/12 00:38:34;;;;;;;1.70;1.60;;;;;;;6.91;nan;-24009.81;5036913;28;20198;-84
2022/12/12 00:41:01;;;;;;;1.80;1.70;;;;;;;6.87;nan;-24008.84;5036992;28;20264;-87
2022/12/12 00:43:26;;;;;;;2.33;1.67;;;;;;;6.88;nan;-24009.13;5031582;28;20296;-87
2022/12/12 00:45:52;;;;;;;2.07;1.40;;;;;;;6.81;nan;-24007.00;5030395;28;20658;-84
2022/12/12 00:48:18;;;;;;;2.00;1.80;;;;;;;6.80;nan;-24006.72;5030693;28;20210;-86
2022/12/12 00:50:44;;;;;;;2.60;1.93;;;;;;;6.40;nan;-23995.50;5031526;28;20186;-86
2022/12/12 00:53:10;;;;;;;2.17;1.80;;;;;;;6.83;nan;-24007.56;5031121;28;20280;-84
2022/12/12 00:55:35;;;;;;;2.13;1.93;;;;;;;6.82;nan;-24007.41;5030730;28;20179;-85
2022/12/12 00:58:00;;;;;;;2.27;1.90;;;;;;;6.56;nan;-24000.19;5030297;28;20191;-86
2022/12/12 01:00:27;;;;;;;1.90;1.57;;;;;;;6.71;nan;-24004.16;5032080;28;20260;-84
2022/12/12 01:02:55;;;;;;;1.83;1.70;;;;;;;6.43;nan;-23996.34;5029151;28;20234;-85
2022/12/12 01:05:21;;;;;;;2.27;1.87;;;;;;;6.50;nan;-23998.34;5030470;28;20175;-84
2022/12/12 01:07:47;;;;;;;1.63;1.53;;;;;;;6.38;nan;-23995.06;5030402;28;20701;-86
2022/12/12 01:10:12;;;;;;;1.70;1.60;;;;;;;6.57;nan;-24000.47;5031672;28;20673;-83
2022/12/12 01:12:37;;;;;;;1.53;1.43;;;;;;;6.68;nan;-24003.31;5033876;28;20621;-83
2022/12/12 01:15:05;;;;;;;2.23;2.00;;;;;;;6.52;nan;-23999.03;5034348;28;20206;-85
2022/12/12 01:17:36;;;;;;;1.87;1.67;;;;;;;6.54;nan;-23999.47;5034315;28;20213;-88
2022/12/12 01:20:03;;;;;;;1.87;1.70;;;;;;;6.29;nan;-23992.50;5030706;28;20179;-87
2022/12/12 01:22:29;;;;;;;3.10;2.03;;;;;;;6.27;nan;-23991.81;5030725;28;20222;-84
2022/12/12 01:24:55;;;;;;;2.60;1.70;;;;;;;6.24;nan;-23990.94;5033859;28;20256;-82
2022/12/12 01:27:21;;;;;;;1.93;1.73;;;;;;;6.16;nan;-23988.97;5034269;28;20664;-86
2022/12/12 01:29:48;;;;;;;2.27;1.53;;;;;;;6.20;nan;-23990.09;5033660;28;20286;-84
2022/12/12 01:32:14;;;;;;;2.00;1.90;;;;;;;6.11;nan;-23987.53;5034144;28;20627;-84
2022/12/12 01:34:39;;;;;;;3.33;1.97;;;;;;;6.09;nan;-23986.97;5033257;28;20182;-87
2022/12/12 01:37:05;;;;;;;1.80;1.70;;;;;;;6.02;nan;-23984.97;5034266;28;20167;-82
2022/12/12 01:39:30;;;;;;;3.73;2.00;;;;;;;6.13;nan;-23988.13;5034181;28;20171;-83
2022/12/12 01:41:56;;;;;;;1.40;1.30;;;;;;;6.29;nan;-23992.38;5035096;28;20171;-85
2022/12/12 01:44:42;;;;;;;1.97;1.83;;;;;;;6.33;nan;-23993.50;5034045;28;20175;-86
2022/12/12 01:47:07;;;;;;;1.60;1.50;;;;;;;6.29;nan;-23992.50;5035605;28;20195;-85
2022/12/12 01:49:34;;;;;;;2.07;1.60;;;;;;;6.34;nan;-23993.78;5034217;28;20745;-86
2022/12/12 01:52:04;;;;;;;1.60;1.33;;;;;;;5.94;nan;-23982.56;5033971;28;20202;-85
2022/12/12 01:54:33;;;;;;;1.70;1.60;;;;;;;6.38;nan;-23994.94;5035356;28;20179;-84
2022/12/12 01:57:04;;;;;;;2.03;1.83;;;;;;;6.35;nan;-23994.06;5033673;28;20270;-84
2022/12/12 01:59:32;;;;;;;1.70;1.60;;;;;;;6.46;nan;-23997.19;5039021;28;20584;-85
2022/12/12 02:01:58;;;;;;;2.07;1.70;;;;;;;6.30;nan;-23992.78;5034155;28;20231;-85
2022/12/12 02:04:26;;;;;;;1.50;1.40;;;;;;;6.33;nan;-23993.66;5033749;28;20297;-85
2022/12/12 02:06:54;;;;;;;1.57;1.47;;;;;;;6.20;nan;-23989.97;5033759;28;20241;-84
2022/12/12 02:09:21;;;;;;;1.80;1.70;;;;;;;6.15;nan;-23988.53;5034275;28;20612;-84
2022/12/12 02:11:50;;;;;;;1.60;1.50;;;;;;;5.97;nan;-23983.56;5035231;28;20222;-85
2022/12/12 02:14:37;;;;;;;1.87;1.77;;;;;;;6.31;nan;-23992.94;5035496;28;20184;-83
2022/12/12 02:17:26;;;;;;;2.33;1.53;;;;;;;6.49;nan;-23998.19;5035869;28;20222;-86
2022/12/12 02:20:16;;;;;;;1.57;1.47;;;;;;;6.54;nan;-23999.63;5034172;28;20179;-84
2022/12/12 02:23:13;;;;;;;1.83;1.70;;;;;;;6.63;nan;-24002.03;5035720;28;20619;-84
2022/12/12 02:25:56;;;;;;;1.50;1.40;;;;;;;6.53;nan;-23999.19;5034227;28;20259;-84
2022/12/12 02:28:34;;;;;;;2.43;1.97;;;;;;;5.80;nan;-23978.72;5034771;28;20603;-84
2022/12/12 02:31:39;;;;;;;1.60;1.50;;;;;;;6.38;nan;-23994.94;5034807;28;20564;-84
2022/12/12 02:34:35;;;;;;;4.00;1.80;;;;;;;6.27;nan;-23991.81;5035328;28;20199;-88
2022/12/12 02:37:19;;;;;;;1.70;1.60;;;;;;;6.22;nan;-23990.53;5033895;28;20163;-88
2022/12/12 02:39:59;;;;;;;1.50;1.40;;;;;;;6.10;nan;-23987.13;5035218;28;20271;-88
2022/12/12 02:42:37;;;;;;;3.27;1.67;;;;;;;6.00;nan;-23984.41;5034707;28;20171;-84
2022/12/12 02:45:13;;;;;;;1.70;1.60;;;;;;;6.11;nan;-23987.53;5034204;28;20175;-85
2022/12/12 02:47:42;;;;;;;1.80;1.70;;;;;;;5.91;nan;-23981.88;5034660;28;20593;-86
2022/12/12 02:50:16;;;;;;;1.60;1.50;;;;;;;6.28;nan;-23992.22;5033855;28;20207;-84
2022/12/12 02:52:42;;;;;;;1.87;1.77;;;;;;;6.29;nan;-23992.50;5035395;28;20179;-83
2022/12/12 02:55:08;;;;;;;1.80;1.70;;;;;;;6.34;nan;-23993.94;5035217;28;20172;-84
2022/12/12 02:57:34;;;;;;;2.77;1.90;;;;;;;6.03;nan;-23985.28;5035280;28;20551;-82
2022/12/12 03:00:08;;;;;;;2.87;1.60;;;;;;;6.16;nan;-23988.97;5033973;28;20163;-83
2022/12/12 03:09:26;;;;;;;2.27;2.07;;;;;;;6.05;nan;-23985.84;5033827;28;20379;-85
2022/12/12 03:12:33;;;;;;;1.50;1.40;;;;;;;6.17;nan;-23989.25;5033907;28;20180;-86
2022/12/12 03:15:05;;;;;;;2.33;1.97;;;;;;;6.10;nan;-23987.25;4988532;28;20243;-85
2022/12/12 03:17:53;;;;;;;3.00;1.80;;;;;;;6.01;nan;-23984.56;5025162;28;20249;-84
2022/12/12 03:20:27;;;;;;;1.90;1.70;;;;;;;6.06;nan;-23986.13;5033085;28;20198;-84
2022/12/12 03:23:06;;;;;;;1.80;1.70;;;;;;;5.65;nan;-23974.59;5033007;28;20222;-86
2022/12/12 03:25:58;;;;;;;3.33;1.73;;;;;;;5.98;nan;-23983.72;5032806;28;20642;-84
2022/12/12 03:28:36;;;;;;;4.00;1.83;;;;;;;5.94;nan;-23982.72;5033907;28;20207;-86
2022/12/12 03:31:07;;;;;;;1.77;1.67;;;;;;;5.97;nan;-23983.56;5032612;28;20183;-87
2022/12/12 03:34:01;;;;;;;2.83;2.17;;;;;;;6.12;nan;-23987.81;5032686;28;20277;-86
2022/12/12 03:36:32;;;;;;;2.17;1.70;;;;;;;5.91;nan;-23981.88;5032232;28;20278;-86
2022/12/12 03:39:05;;;;;;;1.50;1.40;;;;;;;5.94;nan;-23982.56;5033477;28;20172;-87
2022/12/12 03:41:39;;;;;;;1.73;1.63;;;;;;;5.94;nan;-23982.56;5031796;28;20245;-84
2022/12/12 03:44:24;;;;;;;1.93;1.57;;;;;;;6.15;nan;-23988.69;5032078;28;20259;-83
2022/12/12 03:47:02;;;;;;;2.07;1.63;;;;;;;6.10;nan;-23987.25;5030313;28;20186;-85
2022/12/12 03:49:34;;;;;;;2.40;1.47;;;;;;;6.14;nan;-23988.41;5031928;28;20317;-87
2022/12/12 03:52:28;;;;;;;2.23;1.73;;;;;;;6.29;nan;-23992.50;5032078;28;20213;-83
2022/12/12 03:55:11;;;;;;;1.40;1.30;;;;;;;6.06;nan;-23985.97;5031283;28;20230;-87
2022/12/12 03:57:47;;;;;;;2.07;1.60;;;;;;;5.61;nan;-23973.34;5031583;28;20191;-85
2022/12/12 04:00:14;;;;;;;1.73;1.63;;;;;;;6.12;nan;-23987.69;5031852;28;20250;-84
2022/12/12 04:03:24;;;;;;;1.47;1.37;;;;;;;6.18;nan;-23989.38;5030756;28;20285;-84
2022/12/12 04:06:27;;;;;;;1.77;1.60;;;;;;;6.08;nan;-23986.69;5010045;28;20593;-86
2022/12/12 04:14:53;;;;;;;1.60;1.50;;;;;;;5.71;nan;-23976.31;5032963;28;20213;-86
2022/12/12 04:17:28;;;;;;;2.63;1.93;;;;;;;5.68;nan;-23975.47;5034126;28;20224;-84
2022/12/12 04:23:35;;;;;;;1.50;1.40;;;;;;;5.88;nan;-23980.88;5035511;28;20625;-86
2022/12/12 04:29:19;;;;;;;1.87;1.70;;;;;;;4.98;nan;-23955.56;5035715;28;20590;-86
2022/12/12 04:31:54;;;;;;;2.60;1.60;;;;;;;5.40;nan;-23967.38;5034926;28;20305;-85
2022/12/12 04:34:36;;;;;;;1.73;1.63;;;;;;;5.65;nan;-23974.59;5040315;28;20194;-86
2022/12/12 04:37:04;;;;;;;1.97;1.80;;;;;;;5.49;nan;-23970.06;5031382;28;20214;-86
2022/12/12 04:39:32;;;;;;;1.73;1.63;;;;;;;5.63;nan;-23973.91;5033945;28;20186;-87
2022/12/12 04:41:59;;;;;;;2.83;2.10;;;;;;;5.45;nan;-23968.78;5036236;28;20202;-85
2022/12/12 04:44:27;;;;;;;1.67;1.57;;;;;;;5.47;nan;-23969.34;5032050;28;20187;-87
2022/12/12 04:46:56;;;;;;;2.07;1.67;;;;;;;5.33;nan;-23965.50;5034648;28;20207;-85
2022/12/12 04:50:11;;;;;;;2.73;1.70;;;;;;;5.45;nan;-23968.78;5031234;28;20702;-84
2022/12/12 04:52:40;;;;;;;2.13;1.93;;;;;;;5.26;nan;-23963.66;5032022;28;20649;-83
2022/12/12 04:55:05;;;;;;;1.63;1.53;;;;;;;5.26;nan;-23963.53;5032749;28;20257;-88
2022/12/12 04:57:38;;;;;;;2.23;1.73;;;;;;;5.28;nan;-23964.22;5033818;28;20194;-84
2022/12/12 05:00:09;;;;;;;1.83;1.73;;;;;;;5.12;nan;-23959.69;5033601;28;20202;-84
2022/12/12 05:02:58;;;;;;;2.27;2.00;;;;;;;5.28;nan;-23964.22;5033073;28;20233;-85
2022/12/12 05:05:43;;;;;;;1.77;1.63;;;;;;;5.20;nan;-23961.97;5031156;28;20201;-84
2022/12/12 05:08:42;;;;;;;1.97;1.70;;;;;;;4.96;nan;-23955.00;5033017;28;20189;-86
2022/12/12 05:11:10;;;;;;;1.73;1.63;;;;;;;4.90;nan;-23953.44;5022030;28;20195;-86
2022/12/12 05:13:37;;;;;;;2.07;1.87;;;;;;;5.08;nan;-23958.41;5032948;28;20241;-87
2022/12/12 05:16:18;;;;;;;2.33;1.83;;;;;;;5.02;nan;-23956.84;5033222;28;20236;-88
2022/12/12 05:18:45;;;;;;;2.30;2.03;;;;;;;0.89;nan;-23840.44;5035482;28;20223;-84
2022/12/12 05:21:10;;;;;;;4.57;2.67;;;;;;;4.83;nan;-23951.44;5034562;28;20187;-84
2022/12/12 05:23:36;;;;;;;1.80;1.70;;;;;;;4.76;nan;-23949.59;5034137;28;20568;-87
2022/12/12 05:26:06;;;;;;;7.70;2.40;;;;;;;4.96;nan;-23955.13;5031965;28;20191;-86
2022/12/12 05:28:32;;;;;;;2.37;2.00;;;;;;;4.65;nan;-23946.31;5030130;28;20279;-89
2022/12/12 05:30:57;;;;;;;2.43;2.03;;;;;;;4.76;nan;-23949.59;5031076;28;20596;-86
2022/12/12 05:33:22;;;;;;;2.57;1.90;;;;;;;4.52;nan;-23942.75;5030232;28;20688;-84
2022/12/12 05:35:48;;;;;;;6.03;2.30;;;;;;;4.24;nan;-23934.78;5029799;28;20678;-84
2022/12/12 05:38:13;;;;;;;3.93;2.83;;;;;;;3.85;nan;-23923.81;5030414;28;20184;-85
2022/12/12 05:40:39;;;;;;;3.57;2.60;;;;;;;4.35;nan;-23938.06;5030125;28;20179;-87
2022/12/12 05:43:04;;;;;;;5.53;3.00;;;;;;;4.59;nan;-23944.59;5029858;28;20639;-84
2022/12/12 05:45:29;;;;;;;3.10;2.53;;;;;;;4.71;nan;-23948.03;5030373;28;20187;-81
2022/12/12 05:47:56;;;;;;;4.60;2.77;;;;;;;4.54;nan;-23943.19;5033656;28;20525;-85
2022/12/12 05:50:22;;;;;;;7.30;3.57;;;;;;;4.66;nan;-23946.59;5030334;28;20215;-86
2022/12/12 05:52:48;;;;;;;5.23;2.93;;;;;;;4.41;nan;-23939.75;5030099;28;20238;-80
2022/12/12 05:55:13;;;;;;;3.40;2.93;;;;;;;4.75;nan;-23949.16;5029624;28;20279;-84
2022/12/12 05:57:39;;;;;;;3.30;3.00;;;;;;;4.78;nan;-23950.16;5029662;28;20203;-82
2022/12/12 06:00:05;;;;;;;4.93;3.73;;;;;;;4.96;nan;-23955.13;5029502;28;20191;-85
2022/12/12 06:02:30;;;;;;;5.77;3.20;;;;;;;4.98;nan;-23955.69;5029373;28;20325;-84
2022/12/12 06:04:56;;;;;;;4.20;2.67;;;;;;;4.92;nan;-23954.00;5030619;28;20571;-80
2022/12/12 06:07:22;;;;;;;6.73;3.50;;;;;;;4.96;nan;-23955.13;5029603;28;20203;-79
2022/12/12 06:09:48;;;;;;;4.93;3.87;;;;;;;5.15;nan;-23960.53;5030757;28;20207;-79
2022/12/12 06:12:13;;;;;;;6.03;3.77;;;;;;;5.14;nan;-23960.25;5034359;28;20263;-83
2022/12/12 06:14:39;;;;;;;8.70;4.00;;;;;;;5.16;nan;-23960.81;5032282;28;20720;-85
2022/12/12 06:17:05;;;;;;;8.97;4.40;;;;;;;5.24;nan;-23963.09;5033780;28;20193;-85
2022/12/12 06:19:30;;;;;;;3.37;2.90;;;;;;;5.19;nan;-23961.66;5034748;28;20254;-88
2022/12/12 06:21:55;;;;;;;11.03;3.90;;;;;;;5.38;nan;-23966.78;5032724;28;20191;-85
2022/12/12 06:24:21;;;;;;;5.17;4.03;;;;;;;5.43;nan;-23968.34;5032814;28;20249;-82
2022/12/12 06:26:47;;;;;;;3.27;2.60;;;;;;;5.79;nan;-23978.44;5033936;28;20175;-85
2022/12/12 06:29:13;;;;;;;3.60;2.97;;;;;;;5.70;nan;-23976.03;5032857;28;20203;-88
2022/12/12 06:31:39;;;;;;;4.33;3.60;;;;;;;5.72;nan;-23976.47;5033350;28;20225;-86
2022/12/12 06:34:04;;;;;;;3.70;3.33;;;;;;;5.73;nan;-23976.75;5033488;28;20203;-87
2022/12/12 06:36:31;;;;;;;5.53;3.63;;;;;;;5.70;nan;-23975.88;5034822;28;20203;-85
2022/12/12 06:38:59;;;;;;;7.37;3.87;;;;;;;5.42;nan;-23967.94;5033654;28;20182;-87
2022/12/12 06:41:27;;;;;;;8.10;4.67;;;;;;;5.49;nan;-23969.91;5033881;28;20194;-85
2022/12/12 06:43:53;;;;;;;7.70;4.77;;;;;;;5.98;nan;-23983.72;5031965;28;20226;-85
2022/12/12 06:46:22;;;;;;;4.23;3.03;;;;;;;6.08;nan;-23986.69;5033091;28;20218;-85
2022/12/12 06:48:47;;;;;;;5.80;4.23;;;;;;;6.03;nan;-23985.28;5031684;28;20211;-69
2022/12/12 06:51:16;;;;;;;3.17;2.53;;;;;;;5.95;nan;-23983.00;5033104;28;20661;-69
2022/12/12 06:53:42;;;;;;;4.93;3.17;;;;;;;6.42;nan;-23996.22;5033941;28;20172;-70
2022/12/12 06:56:11;;;;;;;4.90;3.30;;;;;;;6.43;nan;-23996.50;5033580;28;20182;-70
2022/12/12 06:58:37;;;;;;;8.47;3.73;;;;;;;6.43;nan;-23996.34;5033860;28;20180;-70
2022/12/12 07:01:02;;;;;;;5.80;3.30;;;;;;;6.49;nan;-23998.06;5033797;28;20190;-74
2022/12/12 07:03:28;;;;;;;6.13;3.33;;;;;;;6.70;nan;-24004.00;5032614;28;20248;-71
2022/12/12 07:05:54;;;;;;;6.20;3.70;;;;;;;6.87;nan;-24008.69;5032883;28;20179;-70
2022/12/12 07:08:19;;;;;;;5.43;3.67;;;;;;;6.35;nan;-23994.06;5033561;28;20304;-69
2022/12/12 07:10:44;;;;;;;6.67;3.17;;;;;;;6.88;nan;-24008.97;5033488;28;20168;-70
2022/12/12 07:13:11;;;;;;;5.63;3.67;;;;;;;6.54;nan;-23999.47;5033044;28;20241;-70
2022/12/12 07:15:44;;;;;;;4.27;3.53;;;;;;;6.63;nan;-24002.03;5032631;28;20594;-70
2022/12/12 07:18:09;;;;;;;5.70;3.70;;;;;;;6.65;nan;-24002.59;5033601;28;20179;-70
2022/12/12 07:20:39;;;;;;;3.80;3.10;;;;;;;7.14;nan;-24016.22;5033388;28;20168;-70
2022/12/12 07:23:04;;;;;;;5.87;3.63;;;;;;;6.91;nan;-24009.81;5033267;28;20549;-69
2022/12/12 07:25:29;;;;;;;4.73;3.33;;;;;;;7.01;nan;-24012.66;5033086;28;20175;-69
2022/12/12 07:27:55;;;;;;;11.77;4.60;;;;;;;7.29;nan;-24020.47;5033363;28;20605;-69
2022/12/12 07:30:20;;;;;;;6.50;3.63;;;;;;;7.46;nan;-24025.44;5033432;28;20203;-70
2022/12/12 07:32:46;;;;;;;6.07;4.17;;;;;;;7.11;nan;-24015.50;5033319;28;20176;-70
2022/12/12 07:35:11;;;;;;;5.47;3.87;;;;;;;7.52;nan;-24027.13;5033203;28;20164;-70
2022/12/12 07:37:36;;;;;;;7.23;4.10;;;;;;;7.60;nan;-24029.25;5033271;28;20218;-69
2022/12/12 07:40:03;;;;;;;7.83;3.93;;;;;;;7.65;nan;-24030.66;5032604;28;20248;-70
2022/12/12 07:42:28;;;;;;;7.87;4.30;;;;;;;7.77;nan;-24034.06;5031661;28;20171;-70
2022/12/12 07:44:53;;;;;;;7.83;3.97;;;;;;;7.86;nan;-24036.63;5033036;28;20172;-70
2022/12/12 07:47:19;;;;;;;7.63;3.97;;;;;;;7.51;nan;-24026.84;5033308;28;20634;-69
2022/12/12 07:49:45;;;;;;;5.97;3.77;;;;;;;7.75;nan;-24033.50;5033917;28;20207;-71
2022/12/12 07:52:10;;;;;;;7.23;3.73;;;;;;;7.47;nan;-24025.56;5032649;28;20682;-69
2022/12/12 07:54:35;;;;;;;11.00;6.40;;;;;;;7.74;nan;-24033.22;5032039;28;20619;-70
2022/12/12 07:57:01;;;;;;;8.63;5.57;;;;;;;8.11;nan;-24043.41;5032332;28;20242;-70
2022/12/12 07:59:26;;;;;;;8.67;4.93;;;;;;;8.35;nan;-24050.38;5032066;28;20194;-70
2022/12/12 08:01:51;;;;;;;5.33;3.10;;;;;;;8.28;nan;-24048.22;5031538;28;20234;-71
2022/12/12 08:04:17;;;;;;;5.20;3.53;;;;;;;8.09;nan;-24043.00;5035833;28;20691;-70
2022/12/12 08:06:42;;;;;;;8.87;4.50;;;;;;;8.39;nan;-24051.34;5032346;28;20183;-70
2022/12/12 08:09:08;;;;;;;7.37;3.17;;;;;;;;;;5032567;28;20670;-69
2022/12/12 08:11:33;;;;;;;6.13;3.63;;;;;;;8.66;nan;-24059.00;5032343;28;20183;-70
2022/12/12 08:13:59;;;;;;;7.87;3.90;;;;;;;8.42;nan;-24052.19;5032437;28;20168;-69
2022/12/12 08:16:27;;;;;;;6.57;4.13;;;;;;;8.51;nan;-24054.59;5032389;28;20179;-71
2022/12/12 08:18:56;;;;;;;8.30;4.38;;;;;;;8.69;nan;-24059.84;5032581;28;20175;-70
2022/12/12 08:21:23;;;;;;;5.25;3.90;;;;;;;8.88;nan;-24065.22;5032148;28;20619;-70
2022/12/12 08:23:48;;;;;;;7.80;4.50;;;;;;;8.84;nan;-24063.94;5032424;28;20235;-70
2022/12/12 08:26:16;;;;;;;7.15;4.45;;;;;;;8.91;nan;-24065.78;5031851;28;20167;-70
2022/12/12 08:28:44;;;;;;;6.75;4.35;;;;;;;9.27;nan;-24076.09;5032152;28;20203;-69
2022/12/12 08:31:12;;;;;;;6.15;4.13;;;;;;;9.13;nan;-24072.00;5032264;28;20159;-69
2022/12/12 08:33:37;;;;;;;12.55;4.97;;;;;;;9.34;nan;-24077.94;5031462;28;20168;-69
2022/12/12 08:36:16;;;;;;;8.35;4.35;;;;;;;9.36;nan;-24078.50;5031935;28;20182;-70
2022/12/12 08:38:42;;;;;;;7.50;4.15;;;;;;;9.48;nan;-24081.91;5032122;28;20179;-70
2022/12/12 08:41:08;;;;;;;7.15;3.70;;;;;;;9.21;nan;-24074.41;5032290;28;20202;-70
2022/12/12 08:43:36;;;;;;;6.85;4.18;;;;;;;9.33;nan;-24077.66;5031360;28;20167;-69
2022/12/12 08:46:02;;;;;;;6.93;3.97;;;;;;;9.54;nan;-24083.59;5031526;28;20199;-70
2022/12/12 08:48:29;;;;;;;5.80;4.00;;;;;;;9.85;nan;-24092.06;5031231;28;20199;-70
2022/12/12 08:50:55;;;;;;;8.43;3.72;;;;;;;9.92;nan;-24094.19;5031615;28;20181;-70
2022/12/12 08:53:21;;;;;;;9.10;3.80;;;;;;;9.80;nan;-24090.81;5032188;28;20275;-69
2022/12/12 08:55:46;;;;;;;5.55;3.45;;;;;;;9.98;nan;-24095.88;5032988;28;20727;-71
2022/12/12 08:58:12;;;;;;;8.02;3.67;;;;;;;9.80;nan;-24090.66;5033576;28;20171;-69
2022/12/12 09:00:37;;;;;;;3.22;2.78;;;;;;;9.85;nan;-24092.06;5031683;28;20187;-71
2022/12/12 09:03:03;;;;;;;3.38;2.67;;;;;;;10.07;nan;-24098.44;5036007;28;20227;-71
2022/12/12 09:05:28;;;;;;;6.47;3.00;;;;;;;9.94;nan;-24094.63;5037858;28;20182;-70
2022/12/12 09:07:54;;;;;;;4.97;3.33;;;;;;;10.01;nan;-24096.72;5035841;28;20175;-70
2022/12/12 09:10:19;;;;;;;6.07;4.03;;;;;;;10.25;nan;-24103.22;5031389;28;20694;-70
2022/12/12 09:12:44;;;;;;;6.85;3.80;;;;;;;10.43;nan;-24108.47;5036325;28;20197;-69
2022/12/12 09:15:10;;;;;;;5.07;3.83;;;;;;;10.30;nan;-24104.66;5031677;28;20245;-69
2022/12/12 09:17:35;;;;;;;7.35;3.22;;;;;;;10.13;nan;-24100.13;5031584;28;20187;-70
2022/12/12 09:20:01;;;;;;;3.85;2.70;;;;;;;10.45;nan;-24108.88;5031261;28;20246;-70
2022/12/12 09:22:27;;;;;;;3.92;2.75;;;;;;;10.38;nan;-24107.03;5031388;28;20176;-70
2022/12/12 09:24:53;;;;;;;12.85;3.50;;;;;;;10.42;nan;-24108.16;5031694;28;20281;-69
2022/12/12 09:27:18;;;;;;;8.98;3.75;;;;;;;10.55;nan;-24111.84;5031708;28;20198;-70
2022/12/12 09:29:43;;;;;;;5.93;3.28;;;;;;;10.38;nan;-24107.03;5031542;28;20210;-70
2022/12/12 09:32:09;;;;;;;5.32;3.00;;;;;;;10.13;nan;-24100.13;5032006;28;20171;-70
2022/12/12 09:34:38;;;;;;;10.65;3.25;;;;;;;9.95;nan;-24095.03;5031382;28;20167;-70
2022/12/12 09:37:03;;;;;;;6.72;3.88;;;;;;;9.75;nan;-24089.53;5031375;28;20175;-69
2022/12/12 09:39:29;;;;;;;5.25;3.67;;;;;;;7.39;nan;-24023.44;5031682;28;20186;-70
2022/12/12 09:41:55;;;;;;;9.57;4.25;;;;;;;10.89;nan;-24121.16;5031348;28;20167;-71
2022/12/12 09:44:23;;;;;;;7.43;3.65;;;;;;;10.76;nan;-24117.63;5031737;28;20549;-69
2022/12/12 09:46:56;;;;;;;7.03;4.03;;;;;;;10.68;nan;-24115.38;5034708;28;20171;-69
2022/12/12 09:49:37;;;;;;;11.82;3.80;;;;;;;10.57;nan;-24112.25;5034124;28;20278;-70
2022/12/12 09:52:02;;;;;;;6.05;3.58;;;;;;;10.47;nan;-24109.59;5034459;28;20258;-72
2022/12/12 09:54:28;;;;;;;8.40;3.95;;;;;;;10.91;nan;-24121.72;5036151;28;20278;-69
2022/12/12 09:57:09;;;;;;;7.57;3.28;;;;;;;11.28;nan;-24132.00;5034854;28;20250;-69
2022/12/12 09:59:54;;;;;;;4.93;3.30;;;;;;;10.83;nan;-24119.59;5014684;28;20247;-70
2022/12/12 10:03:07;;;;;;;7.43;3.92;;;;;;;10.91;nan;-24121.72;5021991;28;20702;-69
2022/12/12 10:06:06;;;;;;;4.10;3.38;;;;;;;10.83;nan;-24119.59;5014566;28;20395;-71
2022/12/12 10:08:43;;;;;;;5.13;3.47;;;;;;;11.07;nan;-24126.38;5034191;28;20289;-70
2022/12/12 10:14:00;;;;;;;5.13;2.97;;;;;;;11.22;nan;-24130.47;5034129;28;20193;-70
2022/12/12 10:16:29;;;;;;;6.38;3.72;;;;;;;11.24;nan;-24131.03;5034110;28;20242;-68
2022/12/12 10:19:01;;;;;;;7.15;3.55;;;;;;;11.20;nan;-24129.75;5033480;28;20182;-69
2022/12/12 10:21:30;;;;;;;8.25;3.85;;;;;;;11.41;nan;-24135.66;5033996;28;20541;-69
2022/12/12 10:24:03;;;;;;;5.90;3.53;;;;;;;11.05;nan;-24125.66;5033941;28;20180;-70
2022/12/12 10:26:30;;;;;;;13.60;4.22;;;;;;;11.31;nan;-24133.00;5034137;28;20167;-70
2022/12/12 10:29:10;;;;;;;6.72;3.35;;;;;;;11.78;nan;-24145.97;5033833;28;20696;-71
2022/12/12 10:32:08;;;;;;;5.63;3.83;;;;;;;11.01;nan;-24124.53;5033806;28;20171;-70
2022/12/12 10:35:12;;;;;;;5.82;2.92;;;;;;;11.01;nan;-24124.53;5033285;28;20171;-70
2022/12/12 10:37:58;;;;;;;4.47;3.42;;;;;;;11.03;nan;-24125.09;5033582;28;20681;-70
2022/12/12 10:40:55;;;;;;;4.18;2.83;;;;;;;11.16;nan;-24128.63;5033334;28;20635;-70
2022/12/12 10:43:28;;;;;;;6.13;3.30;;;;;;;11.24;nan;-24130.88;4997165;28;20233;-70
2022/12/12 10:46:00;;;;;;;4.85;3.53;;;;;;;11.22;nan;-24130.47;5033750;28;20183;-70
2022/12/12 10:48:28;;;;;;;3.55;2.67;;;;;;;11.30;nan;-24132.72;5032589;28;20164;-70
2022/12/12 10:51:00;;;;;;;4.60;3.25;;;;;;;12.00;nan;-24152.00;5032879;28;20222;-69
2022/12/12 10:53:26;;;;;;;5.63;3.13;;;;;;;12.35;nan;-24162.00;5033883;28;20250;-70
2022/12/12 10:56:18;;;;;;;5.25;3.40;;;;;;;12.61;nan;-24169.19;5032766;28;20233;-72
2022/12/12 10:58:52;;;;;;;5.03;3.30;;;;;;;12.66;nan;-24170.59;5027576;28;20693;-70
2022/12/12 11:01:25;;;;;;;5.25;3.28;;;;;;;12.66;nan;-24170.44;5033694;28;20233;-69
2022/12/12 11:03:53;;;;;;;6.05;3.15;;;;;;;12.67;nan;-24170.88;5032291;28;20601;-70
2022/12/12 11:06:28;;;;;;;4.03;2.80;;;;;;;12.38;nan;-24162.84;5033392;28;20225;-69
2022/12/12 11:08:59;;;;;;;5.28;3.00;;;;;;;12.57;nan;-24167.91;5033447;28;20294;-71
2022/12/12 11:11:27;;;;;;;7.82;4.47;;;;;;;12.69;nan;-24171.28;5033650;28;20171;-70
2022/12/12 11:13:59;;;;;;;7.15;3.28;;;;;;;12.81;nan;-24174.81;5015714;28;20655;-71
2022/12/12 11:16:38;;;;;;;5.50;3.10;;;;;;;12.77;nan;-24173.69;5033574;28;20167;-69
2022/12/12 11:19:05;;;;;;;5.70;3.38;;;;;;;12.37;nan;-24162.56;5033191;28;20237;-70
2022/12/12 11:21:34;;;;;;;4.78;3.03;;;;;;;12.21;nan;-24158.06;5033303;28;20670;-69
2022/12/12 11:24:05;;;;;;;5.72;3.20;;;;;;;11.97;nan;-24151.16;5032340;28;20180;-70
2022/12/12 11:26:44;;;;;;;7.13;3.17;;;;;;;12.27;nan;-24159.75;5032674;28;20164;-71
2022/12/12 11:29:35;;;;;;;5.05;3.50;;;;;;;12.37;nan;-24162.44;5032695;28;20203;-69
2022/12/12 11:32:02;;;;;;;4.65;3.05;;;;;;;12.17;nan;-24156.78;5032295;28;20171;-70
2022/12/12 11:34:29;;;;;;;5.88;3.15;;;;;;;12.08;nan;-24154.25;5032647;28;20229;-70
2022/12/12 11:36:56;;;;;;;5.60;3.00;;;;;;;11.86;nan;-24148.34;5032565;28;20176;-71
2022/12/12 11:39:23;;;;;;;4.20;3.17;;;;;;;11.78;nan;-24146.09;5032447;28;20598;-70
2022/12/12 11:42:04;;;;;;;4.82;3.25;;;;;;;11.70;nan;-24143.84;5032346;28;20175;-70
2022/12/12 11:44:34;;;;;;;4.88;2.97;;;;;;;11.66;nan;-24142.72;5031572;28;20221;-71
2022/12/12 11:47:18;;;;;;;4.20;2.97;;;;;;;11.85;nan;-24148.06;5032150;28;20183;-70
2022/12/12 11:49:45;;;;;;;5.28;2.97;;;;;;;11.57;nan;-24140.19;5032131;28;20230;-70
2022/12/12 11:52:24;;;;;;;7.32;3.40;;;;;;;11.90;nan;-24149.47;5032630;28;20261;-70
2022/12/12 11:54:51;;;;;;;4.35;3.03;;;;;;;12.03;nan;-24153.00;5032129;28;20254;-69
2022/12/12 11:57:41;;;;;;;4.68;3.13;;;;;;;11.92;nan;-24150.03;5032759;28;20658;-69
2022/12/12 12:00:11;;;;;;;8.25;3.72;;;;;;;11.90;nan;-24149.34;5033171;28;20194;-70
2022/12/12 12:03:15;;;;;;;4.82;3.75;;;;;;;11.89;nan;-24149.06;5032041;28;20222;-69
2022/12/12 12:05:48;;;;;;;8.77;4.05;;;;;;;12.19;nan;-24157.50;5032963;28;20171;-71
2022/12/12 12:08:22;;;;;;;7.82;3.60;;;;;;;12.24;nan;-24158.78;5031466;28;20175;-70
2022/12/12 12:11:26;;;;;;;10.32;4.72;;;;;;;12.08;nan;-24154.25;5032084;28;20178;-69
2022/12/12 12:14:24;;;;;;;5.85;3.85;;;;;;;12.17;nan;-24156.78;5032223;28;20171;-70
2022/12/12 12:17:12;;;;;;;12.63;4.70;;;;;;;12.12;nan;-24155.38;5032353;28;20665;-70
2022/12/12 12:20:13;;;;;;;9.75;4.90;;;;;;;11.70;nan;-24143.69;5032161;28;20178;-68
2022/12/12 12:23:21;;;;;;;10.88;5.32;;;;;;;12.04;nan;-24153.28;5032335;28;20175;-70
2022/12/12 12:26:03;;;;;;;10.38;5.28;;;;;;;12.44;nan;-24164.41;5026232;28;20191;-69
2022/12/12 12:29:00;;;;;;;12.38;6.07;;;;;;;12.50;nan;-24165.94;5032040;28;20190;-69
2022/12/12 12:31:37;;;;;;;11.80;6.28;;;;;;;12.45;nan;-24164.53;4996738;28;20263;-70
2022/12/12 12:34:28;;;;;;;9.32;5.63;;;;;;;12.61;nan;-24169.03;5031797;28;20186;-70